KOGB

Orangeburg Municipal Airport

Orangeburg, South Carolina, USA
KOGB 251416Z 2514/2612 05005KT P6SM BKN007 FM251600 05005KT P6SM BKN012 FM251800 04006KT P6SM BKN035 FM252000 04006KT P6SM SCT040 FM260900 00000KT 3SM BR SCT005
Issued Valid From Valid To
Sep-25 @ 14:16 UTC
(50 minutes ago)
Sep-25 @ 14:00 UTC
(an hour ago)
Sep-26 @ 12:00 UTC
(in 21 hours)
Sep-25 @ 14:00 to Sep-25 @ 16:00
KOGB 251416Z 2514/2612 05005KT P6SM BKN007
Wind Visibility Clouds
50° at 5 knots Greater than 6 miles
  • Broken at 700' AGL
From Sep-25 @ 16:00 to Sep-25 @ 18:00
FM251600 05005KT P6SM BKN012
Wind Visibility Clouds
50° at 5 knots Greater than 6 miles
  • Broken at 1,200' AGL
From Sep-25 @ 18:00 to Sep-25 @ 20:00
FM251800 04006KT P6SM BKN035
Wind Visibility Clouds
40° at 6 knots Greater than 6 miles
  • Broken at 3,500' AGL
From Sep-25 @ 20:00 to Sep-26 @ 09:00
FM252000 04006KT P6SM SCT040
Wind Visibility Clouds
40° at 6 knots Greater than 6 miles
  • Scattered at 4,000' AGL
From Sep-26 @ 09:00 to Sep-26 @ 12:00
FM260900 00000KT 3SM BR SCT005
Visibility Clouds Conditions
3 miles
  • Scattered at 500' AGL
  • Mist
KOGB 251416Z 2514/2612 05005KT P6SM BKN007 FM251600 05005KT P6SM BKN012 FM251800 04006KT P6SM BKN035 FM252000 04006KT P6SM SCT040 FM260900 00000KT 3SM BR SCT005
Issued Sep-25 @ 14:16 UTC
(50 minutes ago)
Valid From Sep-25 @ 14:00 UTC
(an hour ago)
Valid To Sep-26 @ 12:00 UTC
(in 21 hours)
Sep-25 @ 14:00 - Sep-25 @ 16:00
Wind Visibility
50° at 5 knots Greater than 6 miles
Clouds
  • Broken at 700' AGL
From Sep-25 @ 16:00 - Sep-25 @ 18:00
Wind Visibility
50° at 5 knots Greater than 6 miles
Clouds
  • Broken at 1,200' AGL
From Sep-25 @ 18:00 - Sep-25 @ 20:00
Wind Visibility
40° at 6 knots Greater than 6 miles
Clouds
  • Broken at 3,500' AGL
From Sep-25 @ 20:00 - Sep-26 @ 09:00
Wind Visibility
40° at 6 knots Greater than 6 miles
Clouds
  • Scattered at 4,000' AGL
From Sep-26 @ 09:00 - Sep-26 @ 12:00
Clouds
  • Scattered at 500' AGL
Conditions
  • Mist